Time;durP1;ratioP1;P1;durP2;ratioP2;P2;SDS_P1;SDS_P2;PMS_P1;PMS_P2;Temp;Humidity;BMP_temperature;BMP_pressure;BME280_temperature;BME280_humidity;BME280_pressure;Samples;Min_cycle;Max_cycle;Signal;HPM_P1;HPM_P2
2022/11/23 00:01:25;;;;;;;;;;;15.50;79.40;;;;;;5057918;28;19968;-91
2022/11/23 00:03:55;;;;;;;;;;;15.50;79.50;;;;;;5059222;28;19912;-91
2022/11/23 00:06:21;;;;;;;;;;;15.50;79.50;;;;;;5058744;28;19991;-91
2022/11/23 00:08:47;;;;;;;;;;;15.50;79.60;;;;;;5057287;28;20031;-90
2022/11/23 00:11:13;;;;;;;;;;;15.40;79.70;;;;;;5058782;28;19974;-91
2022/11/23 00:13:39;;;;;;;;;;;15.40;79.70;;;;;;5058542;28;19920;-91
2022/11/23 00:16:06;;;;;;;;;;;15.40;79.70;;;;;;5058873;28;19917;-91
2022/11/23 00:18:35;;;;;;;;;;;15.40;79.80;;;;;;5058396;28;19933;-92
2022/11/23 00:21:11;;;;;;;;;;;15.40;80.00;;;;;;5058092;28;19912;-91
2022/11/23 00:23:36;;;;;;;;;;;15.40;80.10;;;;;;5058266;28;19923;-91
2022/11/23 00:26:05;;;;;;;;;;;15.40;80.20;;;;;;5057859;28;19909;-91
2022/11/23 00:28:37;;;;;;;;;;;15.40;80.30;;;;;;5057841;28;19958;-91
2022/11/23 00:31:04;;;;;;;;;;;15.30;80.30;;;;;;5056134;28;20058;-91
2022/11/23 00:33:29;;;;;;;;;;;15.40;80.40;;;;;;5056260;28;19991;-91
2022/11/23 00:36:02;;;;;;;;;;;15.30;80.40;;;;;;5056227;28;19992;-91
2022/11/23 00:38:31;;;;;;;;;;;15.30;80.40;;;;;;5057212;28;19962;-91
2022/11/23 00:40:58;;;;;;;;;;;15.30;80.50;;;;;;5057657;28;19909;-91
2022/11/23 00:43:24;;;;;;;;;;;15.30;80.60;;;;;;5058759;28;20349;-92
2022/11/23 00:46:09;;;;;;;;;;;15.30;80.70;;;;;;5058015;28;20050;-92
2022/11/23 00:48:38;;;;;;;;;;;15.30;80.80;;;;;;5056877;28;19917;-91
2022/11/23 00:51:07;;;;;;;;;;;15.30;80.90;;;;;;5057909;28;20186;-92
2022/11/23 00:53:33;;;;;;;;;;;15.20;81.00;;;;;;5057419;28;20203;-91
2022/11/23 00:55:59;;;;;;;;;;;15.30;81.10;;;;;;5058310;28;19920;-92
2022/11/23 00:58:25;;;;;;;;;;;15.20;81.00;;;;;;5057506;28;19959;-93
2022/11/23 01:01:01;;;;;;;;;;;15.20;81.10;;;;;;5057634;28;20236;-93
2022/11/23 01:03:30;;;;;;;;;;;15.20;81.10;;;;;;5056790;28;19913;-91
2022/11/23 01:06:07;;;;;;;;;;;15.20;81.20;;;;;;5056712;28;19974;-91
2022/11/23 01:08:36;;;;;;;;;;;15.20;81.30;;;;;;5056574;28;19912;-91
2022/11/23 01:11:03;;;;;;;;;;;15.20;81.30;;;;;;5056572;28;20201;-91
2022/11/23 01:13:32;;;;;;;;;;;15.20;81.40;;;;;;5055343;28;19909;-92
2022/11/23 01:16:01;;;;;;;;;;;15.20;81.40;;;;;;5055443;28;20389;-91
2022/11/23 01:18:26;;;;;;;;;;;15.20;81.50;;;;;;5055988;28;19924;-92
2022/11/23 01:20:55;;;;;;;;;;;15.20;81.50;;;;;;5057172;28;19909;-92
2022/11/23 01:23:24;;;;;;;;;;;15.20;81.70;;;;;;5057491;28;19920;-92
2022/11/23 01:25:53;;;;;;;;;;;15.20;81.80;;;;;;5058095;28;20155;-91
2022/11/23 01:28:18;;;;;;;;;;;15.20;81.80;;;;;;5057385;28;19935;-92
2022/11/23 01:30:47;;;;;;;;;;;15.10;81.80;;;;;;5057793;28;19909;-92
2022/11/23 01:33:16;;;;;;;;;;;15.10;81.90;;;;;;5056597;28;19909;-91
2022/11/23 01:35:41;;;;;;;;;;;15.10;81.90;;;;;;5269797;22;19928;-93
2022/11/23 01:38:07;;;;;;;;;;;15.10;82.00;;;;;;5034483;28;20204;-92
2022/11/23 01:40:40;;;;;;;;;;;15.10;82.00;;;;;;5057119;28;20295;-92
2022/11/23 01:43:09;;;;;;;;;;;15.10;82.00;;;;;;5056614;28;19912;-92
2022/11/23 01:45:37;;;;;;;;;;;15.10;82.00;;;;;;5057268;28;20060;-92
2022/11/23 01:48:06;;;;;;;;;;;15.10;82.10;;;;;;5057173;28;19909;-92
2022/11/23 01:50:31;;;;;;;;;;;15.10;82.10;;;;;;5056338;28;19910;-93
2022/11/23 01:52:57;;;;;;;;;;;15.10;82.10;;;;;;5058424;28;19908;-92
2022/11/23 01:55:23;;;;;;;;;;;15.10;82.10;;;;;;5058033;28;19994;-93
2022/11/23 01:57:49;;;;;;;;;;;15.10;82.20;;;;;;5059094;28;20277;-92
2022/11/23 02:00:15;;;;;;;;;;;15.10;82.20;;;;;;5059811;28;19919;-93
2022/11/23 02:02:44;;;;;;;;;;;15.10;82.30;;;;;;5059932;28;20250;-93
2022/11/23 02:05:10;;;;;;;;;;;15.10;82.30;;;;;;5060925;28;19951;-92
2022/11/23 02:07:36;;;;;;;;;;;15.00;82.30;;;;;;5059626;28;19908;-92
2022/11/23 02:10:03;;;;;;;;;;;15.00;83.10;;;;;;5059997;28;19974;-93
2022/11/23 02:12:28;;;;;;;;;;;15.00;82.50;;;;;;5059212;28;19909;-92
2022/11/23 02:14:54;;;;;;;;;;;15.00;82.50;;;;;;5059428;28;19962;-93
2022/11/23 02:17:20;;;;;;;;;;;15.00;82.60;;;;;;5057161;28;19999;-92
2022/11/23 02:20:10;;;;;;;;;;;15.00;82.60;;;;;;5056873;28;19917;-93
2022/11/23 02:22:54;;;;;;;;;;;15.00;82.70;;;;;;5052522;28;19909;-93
2022/11/23 02:25:25;;;;;;;;;;;15.00;82.70;;;;;;5056788;28;19909;-92
2022/11/23 02:27:52;;;;;;;;;;;15.00;82.70;;;;;;5054300;28;19908;-92
2022/11/23 02:30:17;;;;;;;;;;;15.00;82.90;;;;;;5056388;28;19970;-92
2022/11/23 02:32:43;;;;;;;;;;;15.00;82.90;;;;;;5057380;28;19920;-92
2022/11/23 02:35:12;;;;;;;;;;;15.00;82.90;;;;;;5058015;28;19921;-92
2022/11/23 02:37:38;;;;;;;;;;;15.00;82.90;;;;;;5058169;28;19915;-92
2022/11/23 02:40:05;;;;;;;;;;;15.00;83.00;;;;;;5058981;28;19908;-92
2022/11/23 02:42:31;;;;;;;;;;;15.00;83.00;;;;;;5076866;28;19908;-92
2022/11/23 02:45:07;;;;;;;;;;;15.00;83.10;;;;;;5059067;28;19919;-92
2022/11/23 02:47:33;;;;;;;;;;;15.00;83.10;;;;;;5059115;28;19915;-92
2022/11/23 02:49:58;;;;;;;;;;;15.00;83.10;;;;;;5059249;28;19909;-92
2022/11/23 02:55:27;;;;;;;;;;;15.00;83.10;;;;;;5041069;28;19919;-92
2022/11/23 02:57:52;;;;;;;;;;;15.00;83.10;;;;;;5058123;28;19908;-92
2022/11/23 03:00:18;;;;;;;;;;;15.00;83.20;;;;;;5058382;28;20278;-92
2022/11/23 03:02:43;;;;;;;;;;;15.00;83.10;;;;;;5060811;28;19999;-92
2022/11/23 03:05:09;;;;;;;;;;;15.00;83.20;;;;;;5062280;28;19909;-92
2022/11/23 03:07:35;;;;;;;;;;;15.00;83.20;;;;;;5061954;28;19920;-92
2022/11/23 03:10:00;;;;;;;;;;;15.00;83.20;;;;;;5063177;28;19924;-91
2022/11/23 03:12:26;;;;;;;;;;;15.00;83.20;;;;;;5062652;28;19948;-93
2022/11/23 03:14:51;;;;;;;;;;;15.00;83.20;;;;;;5062630;28;19920;-92
2022/11/23 03:17:17;;;;;;;;;;;15.00;83.30;;;;;;5063126;28;19909;-92
2022/11/23 03:19:43;;;;;;;;;;;15.00;83.40;;;;;;5062597;28;19919;-92
2022/11/23 03:22:08;;;;;;;;;;;15.00;83.40;;;;;;5062904;28;19917;-92
2022/11/23 03:24:34;;;;;;;;;;;15.00;83.40;;;;;;5061358;28;19973;-92
2022/11/23 03:27:00;;;;;;;;;;;14.90;83.40;;;;;;5062363;28;20268;-92
2022/11/23 03:29:25;;;;;;;;;;;15.00;83.40;;;;;;5062678;28;20298;-92
2022/11/23 03:31:54;;;;;;;;;;;15.00;83.50;;;;;;5062762;28;20271;-92
2022/11/23 03:34:20;;;;;;;;;;;14.90;83.50;;;;;;5062532;28;19909;-92
2022/11/23 03:36:45;;;;;;;;;;;14.90;83.60;;;;;;5061963;28;19927;-92
2022/11/23 03:39:11;;;;;;;;;;;14.90;83.60;;;;;;5061372;28;19981;-93
2022/11/23 03:41:37;;;;;;;;;;;14.90;83.60;;;;;;5061819;28;19970;-92
2022/11/23 03:44:03;;;;;;;;;;;14.90;83.70;;;;;;5061897;28;19927;-92
2022/11/23 03:46:28;;;;;;;;;;;14.90;83.80;;;;;;5061956;28;19916;-92
2022/11/23 03:48:55;;;;;;;;;;;14.90;83.80;;;;;;5061785;28;19908;-93
2022/11/23 03:51:20;;;;;;;;;;;14.90;83.90;;;;;;5062230;28;20350;-92
2022/11/23 03:53:46;;;;;;;;;;;14.90;83.80;;;;;;5061001;28;19917;-92
2022/11/23 03:56:11;;;;;;;;;;;14.90;84.00;;;;;;5062339;28;19912;-92
2022/11/23 03:58:37;;;;;;;;;;;14.90;84.00;;;;;;5060980;28;19973;-93
2022/11/23 04:01:03;;;;;;;;;;;14.80;84.10;;;;;;5060794;28;19999;-92
2022/11/23 04:03:28;;;;;;;;;;;14.80;84.20;;;;;;5060996;28;19926;-93
2022/11/23 04:05:54;;;;;;;;;;;14.80;84.30;;;;;;5061176;28;19909;-93
2022/11/23 04:08:20;;;;;;;;;;;14.80;84.50;;;;;;5060300;28;20003;-93
2022/11/23 04:10:45;;;;;;;;;;;14.80;84.80;;;;;;5060941;28;19908;-92
2022/11/23 04:13:11;;;;;;;;;;;15.10;84.30;;;;;;5059798;28;19999;-92
2022/11/23 04:15:36;;;;;;;;;;;16.00;78.00;;;;;;5059972;28;20019;-92
2022/11/23 04:18:02;;;;;;;;;;;16.60;74.10;;;;;;5060601;28;20262;-92
2022/11/23 04:20:28;;;;;;;;;;;16.80;72.00;;;;;;5061917;28;19908;-92
2022/11/23 04:22:53;;;;;;;;;;;17.00;71.10;;;;;;5061568;28;19997;-92
2022/11/23 04:25:19;;;;;;;;;;;17.10;70.10;;;;;;5062203;28;19977;-92
2022/11/23 04:27:45;;;;;;;;;;;17.30;69.10;;;;;;5061393;28;19908;-92
2022/11/23 04:30:11;;;;;;;;;;;17.40;68.10;;;;;;5061790;28;20293;-92
2022/11/23 04:32:36;;;;;;;;;;;17.50;67.60;;;;;;5060456;28;20003;-92
2022/11/23 04:35:02;;;;;;;;;;;17.50;67.00;;;;;;5059847;28;19908;-92
2022/11/23 04:37:28;;;;;;;;;;;17.60;67.00;;;;;;5058433;28;20033;-92
2022/11/23 04:39:53;;;;;;;;;;;17.60;66.80;;;;;;5059428;28;20293;-92
2022/11/23 04:42:19;;;;;;;;;;;17.70;66.50;;;;;;5058534;28;19947;-93
2022/11/23 04:44:45;;;;;;;;;;;17.80;65.90;;;;;;5059737;28;20253;-92
2022/11/23 04:47:10;;;;;;;;;;;17.90;65.20;;;;;;5058312;28;19909;-92
2022/11/23 04:49:36;;;;;;;;;;;18.00;64.80;;;;;;5058350;28;20021;-91
2022/11/23 04:52:02;;;;;;;;;;;18.00;64.40;;;;;;5058404;28;20150;-93
2022/11/23 04:54:28;;;;;;;;;;;18.10;64.40;;;;;;5057896;28;20214;-92
2022/11/23 04:56:53;;;;;;;;;;;18.10;64.40;;;;;;5058690;28;19909;-93
2022/11/23 04:59:19;;;;;;;;;;;18.10;64.40;;;;;;5057378;28;19970;-93
2022/11/23 05:01:44;;;;;;;;;;;18.00;64.50;;;;;;5055942;28;19915;-92
2022/11/23 05:04:10;;;;;;;;;;;18.00;64.80;;;;;;5074933;28;20319;-93
2022/11/23 05:06:36;;;;;;;;;;;17.90;64.90;;;;;;5058683;28;19951;-93
2022/11/23 05:09:01;;;;;;;;;;;17.90;65.10;;;;;;5056634;28;19935;-93
2022/11/23 05:11:27;;;;;;;;;;;17.90;65.50;;;;;;5056474;28;19905;-93
2022/11/23 05:13:52;;;;;;;;;;;17.70;65.80;;;;;;5043860;28;19909;-93
2022/11/23 05:16:18;;;;;;;;;;;17.70;66.20;;;;;;5059646;28;19912;-93
2022/11/23 05:18:44;;;;;;;;;;;17.60;66.60;;;;;;5048582;28;20015;-93
2022/11/23 05:21:09;;;;;;;;;;;17.60;67.10;;;;;;5057104;28;19999;-93
2022/11/23 05:23:35;;;;;;;;;;;17.50;67.50;;;;;;5045461;28;19967;-93
2022/11/23 05:26:02;;;;;;;;;;;17.40;67.90;;;;;;5056675;28;19913;-93
2022/11/23 05:28:27;;;;;;;;;;;17.30;69.00;;;;;;5056642;28;19908;-92
2022/11/23 05:30:53;;;;;;;;;;;17.30;68.90;;;;;;5056162;28;19916;-91
2022/11/23 05:33:19;;;;;;;;;;;17.20;69.30;;;;;;5057057;28;19916;-92
2022/11/23 05:35:44;;;;;;;;;;;17.10;69.80;;;;;;5073223;28;19916;-92
2022/11/23 05:38:10;;;;;;;;;;;17.00;70.30;;;;;;5052638;28;19908;-92
2022/11/23 05:40:35;;;;;;;;;;;17.00;71.00;;;;;;5055048;28;19908;-93
2022/11/23 05:43:01;;;;;;;;;;;16.90;71.50;;;;;;5055370;28;20002;-93
2022/11/23 05:45:27;;;;;;;;;;;16.80;72.10;;;;;;5058871;28;20054;-93
2022/11/23 05:47:53;;;;;;;;;;;16.70;72.70;;;;;;5053599;28;19912;-93
2022/11/23 05:50:19;;;;;;;;;;;16.60;73.30;;;;;;5052466;28;19935;-92
2022/11/23 05:52:45;;;;;;;;;;;16.60;73.90;;;;;;5049448;28;20064;-94
2022/11/23 05:55:11;;;;;;;;;;;16.50;74.40;;;;;;5053080;28;19916;-92
2022/11/23 05:57:38;;;;;;;;;;;16.50;75.00;;;;;;5052231;28;19989;-92
2022/11/23 06:03:07;;;;;;;;;;;16.40;75.70;;;;;;5073755;28;20071;-93
2022/11/23 06:05:32;;;;;;;;;;;16.30;76.00;;;;;;5057644;28;19912;-93
2022/11/23 06:07:58;;;;;;;;;;;16.30;76.20;;;;;;5057369;28;19988;-92
2022/11/23 06:10:23;;;;;;;;;;;16.30;76.20;;;;;;5046828;28;20285;-92
2022/11/23 06:12:50;;;;;;;;;;;16.40;76.00;;;;;;5054272;28;19962;-92
2022/11/23 06:15:17;;;;;;;;;;;16.40;75.70;;;;;;5055620;28;19954;-93
2022/11/23 06:17:42;;;;;;;;;;;16.50;75.30;;;;;;5057130;28;19919;-92
2022/11/23 06:20:08;;;;;;;;;;;16.60;74.60;;;;;;5051953;28;19909;-92
2022/11/23 06:22:34;;;;;;;;;;;16.70;73.90;;;;;;5054136;28;20243;-93
2022/11/23 06:24:59;;;;;;;;;;;16.80;73.20;;;;;;5045158;28;20284;-93
2022/11/23 06:27:25;;;;;;;;;;;17.00;72.50;;;;;;5054178;28;19919;-92
2022/11/23 06:29:51;;;;;;;;;;;17.00;71.90;;;;;;5053674;28;20247;-92
2022/11/23 06:32:16;;;;;;;;;;;17.10;71.20;;;;;;5055061;28;19956;-93
2022/11/23 06:34:42;;;;;;;;;;;17.30;70.80;;;;;;5052632;28;19965;-92
2022/11/23 06:37:08;;;;;;;;;;;17.30;70.30;;;;;;5052290;28;20099;-92
2022/11/23 06:39:33;;;;;;;;;;;17.30;70.10;;;;;;5053359;28;19948;-92
2022/11/23 06:41:59;;;;;;;;;;;17.40;71.00;;;;;;5050027;28;19969;-93
2022/11/23 06:44:24;;;;;;;;;;;17.40;71.60;;;;;;5049084;28;19920;-93
2022/11/23 06:46:50;;;;;;;;;;;17.40;71.60;;;;;;5048651;28;20147;-93
2022/11/23 06:49:18;;;;;;;;;;;17.40;71.50;;;;;;5049750;28;20160;-93
2022/11/23 06:51:44;;;;;;;;;;;17.40;71.80;;;;;;5049269;28;20181;-93
2022/11/23 06:54:09;;;;;;;;;;;17.40;72.10;;;;;;5037526;28;20014;-92
2022/11/23 06:56:35;;;;;;;;;;;17.30;72.10;;;;;;5048140;28;20159;-93
2022/11/23 06:59:00;;;;;;;;;;;17.30;72.30;;;;;;5050690;28;20068;-93
2022/11/23 07:01:26;;;;;;;;;;;17.30;73.00;;;;;;5048489;28;19909;-93
2022/11/23 07:03:51;;;;;;;;;;;17.20;73.50;;;;;;5040123;28;19955;-93
2022/11/23 07:06:17;;;;;;;;;;;17.20;73.40;;;;;;5047504;28;19909;-93
2022/11/23 07:08:42;;;;;;;;;;;17.10;73.60;;;;;;5052257;28;20278;-93
2022/11/23 07:11:09;;;;;;;;;;;17.10;74.60;;;;;;5050659;28;19908;-93
2022/11/23 07:13:35;;;;;;;;;;;17.00;74.50;;;;;;5051862;28;20269;-93
2022/11/23 07:16:00;;;;;;;;;;;17.00;74.60;;;;;;5052841;28;19909;-92
2022/11/23 07:18:26;;;;;;;;;;;17.00;74.90;;;;;;5056122;28;19940;-92
2022/11/23 07:20:52;;;;;;;;;;;16.90;75.20;;;;;;5052929;28;19916;-92
2022/11/23 07:23:18;;;;;;;;;;;16.90;75.70;;;;;;5053700;28;19912;-93
2022/11/23 07:25:43;;;;;;;;;;;16.90;75.70;;;;;;5053780;28;20162;-93
2022/11/23 07:28:19;;;;;;;;;;;16.90;76.20;;;;;;5050055;28;19956;-95
2022/11/23 07:31:00;;;;;;;;;;;16.80;76.60;;;;;;5064401;28;19919;-93
2022/11/23 07:33:26;;;;;;;;;;;16.80;77.00;;;;;;5043538;28;20288;-93
2022/11/23 07:35:51;;;;;;;;;;;16.80;78.20;;;;;;5046963;28;20140;-92
2022/11/23 07:38:17;;;;;;;;;;;16.70;78.80;;;;;;5044605;28;19942;-93
2022/11/23 07:40:42;;;;;;;;;;;16.70;79.30;;;;;;5045662;28;20182;-92
2022/11/23 07:43:09;;;;;;;;;;;16.70;79.80;;;;;;5062542;28;20129;-93
2022/11/23 07:45:35;;;;;;;;;;;16.70;80.10;;;;;;5041458;28;20103;-93
2022/11/23 07:48:11;;;;;;;;;;;16.70;80.00;;;;;;5050734;28;20205;-93
2022/11/23 07:50:37;;;;;;;;;;;16.70;80.40;;;;;;5053883;28;20144;-92
2022/11/23 07:53:06;;;;;;;;;;;16.70;80.80;;;;;;5053240;28;19944;-93
2022/11/23 07:55:32;;;;;;;;;;;16.70;81.00;;;;;;5046672;28;20153;-93
2022/11/23 07:57:57;;;;;;;;;;;16.70;80.80;;;;;;5036489;28;19944;-93
2022/11/23 08:00:24;;;;;;;;;;;16.70;80.70;;;;;;5055738;28;19947;-93
2022/11/23 08:02:49;;;;;;;;;;;16.70;80.50;;;;;;5074395;28;19944;-93
2022/11/23 08:05:15;;;;;;;;;;;16.70;80.20;;;;;;5056347;28;19974;-93
2022/11/23 08:07:41;;;;;;;;;;;16.80;80.00;;;;;;5057676;28;19916;-93
2022/11/23 08:10:06;;;;;;;;;;;16.80;79.70;;;;;;5055092;28;20177;-93
2022/11/23 08:12:32;;;;;;;;;;;16.90;79.70;;;;;;5055425;28;19995;-93
2022/11/23 08:14:57;;;;;;;;;;;16.90;79.30;;;;;;5055171;28;19916;-93
2022/11/23 08:17:23;;;;;;;;;;;16.90;79.00;;;;;;5056051;28;19919;-93
2022/11/23 08:19:48;;;;;;;;;;;17.00;78.70;;;;;;5055222;28;19966;-93
2022/11/23 08:22:15;;;;;;;;;;;17.00;78.30;;;;;;5055113;28;19955;-93
2022/11/23 08:24:41;;;;;;;;;;;17.10;78.00;;;;;;5047432;28;19974;-93
2022/11/23 08:27:06;;;;;;;;;;;17.20;77.50;;;;;;5057632;28;19916;-93
2022/11/23 08:29:32;;;;;;;;;;;17.20;76.80;;;;;;5038788;28;19915;-93
2022/11/23 08:31:58;;;;;;;;;;;17.40;76.10;;;;;;5055568;28;19909;-93
2022/11/23 08:34:24;;;;;;;;;;;17.80;74.90;;;;;;5057283;28;19912;-93
2022/11/23 08:36:49;;;;;;;;;;;18.90;69.80;;;;;;5055417;28;20170;-93
2022/11/23 08:39:16;;;;;;;;;;;19.80;64.20;;;;;;5056299;28;20399;-93
2022/11/23 08:41:41;;;;;;;;;;;20.50;60.30;;;;;;5057049;28;20002;-93
2022/11/23 08:44:09;;;;;;;;;;;21.10;58.50;;;;;;5049942;28;20001;-92
2022/11/23 08:46:35;;;;;;;;;;;21.40;57.30;;;;;;5052294;28;19958;-93
2022/11/23 08:49:01;;;;;;;;;;;21.70;56.60;;;;;;5054801;28;19956;-93
2022/11/23 08:51:26;;;;;;;;;;;21.90;55.90;;;;;;5043080;28;20070;-93
2022/11/23 08:53:52;;;;;;;;;;;22.10;55.20;;;;;;5055438;28;19915;-93
2022/11/23 08:56:18;;;;;;;;;;;22.30;54.70;;;;;;5053247;28;19919;-93
2022/11/23 08:58:44;;;;;;;;;;;22.50;54.20;;;;;;5052388;28;19947;-93
2022/11/23 09:01:10;;;;;;;;;;;22.70;53.70;;;;;;5052122;28;19908;-93
2022/11/23 09:03:36;;;;;;;;;;;22.90;53.20;;;;;;5053190;28;19912;-93
2022/11/23 09:06:02;;;;;;;;;;;23.00;52.90;;;;;;5050406;28;20021;-93
2022/11/23 09:08:28;;;;;;;;;;;23.00;52.60;;;;;;5052254;28;20191;-93
2022/11/23 09:10:53;;;;;;;;;;;23.10;52.40;;;;;;5052564;28;20001;-93
2022/11/23 09:13:19;;;;;;;;;;;23.10;52.20;;;;;;5051923;28;20159;-93
2022/11/23 09:15:45;;;;;;;;;;;23.10;52.10;;;;;;5051904;28;19909;-93
2022/11/23 09:18:11;;;;;;;;;;;23.00;52.00;;;;;;5054211;28;19908;-93
2022/11/23 09:20:38;;;;;;;;;;;22.70;52.10;;;;;;5054899;28;20221;-93
2022/11/23 09:23:03;;;;;;;;;;;22.30;52.20;;;;;;5054210;28;19916;-93
2022/11/23 09:25:29;;;;;;;;;;;22.00;52.60;;;;;;5069949;28;19935;-93
2022/11/23 09:27:56;;;;;;;;;;;21.70;53.00;;;;;;5051738;28;19909;-94
2022/11/23 09:30:21;;;;;;;;;;;21.50;53.40;;;;;;5054048;28;20132;-93
2022/11/23 09:32:47;;;;;;;;;;;21.30;53.80;;;;;;5053315;28;19959;-93
2022/11/23 09:35:13;;;;;;;;;;;21.10;54.20;;;;;;5053396;28;19924;-93
2022/11/23 09:37:38;;;;;;;;;;;20.90;54.50;;;;;;5052385;28;19913;-93
2022/11/23 09:40:04;;;;;;;;;;;20.70;54.90;;;;;;5053686;28;19908;-94
2022/11/23 09:42:33;;;;;;;;;;;20.60;55.20;;;;;;5053635;28;19919;-93
2022/11/23 09:44:59;;;;;;;;;;;20.50;55.60;;;;;;5051768;28;20178;-94
2022/11/23 09:47:35;;;;;;;;;;;20.40;55.80;;;;;;5053610;28;20028;-93
2022/11/23 09:50:08;;;;;;;;;;;20.30;56.10;;;;;;5049829;28;20023;-92
2022/11/23 09:52:44;;;;;;;;;;;20.20;56.30;;;;;;5052482;28;20073;-93
2022/11/23 09:55:15;;;;;;;;;;;20.10;56.60;;;;;;5051506;28;20368;-93
2022/11/23 09:57:41;;;;;;;;;;;20.10;56.90;;;;;;5053037;28;19908;-94
2022/11/23 10:00:16;;;;;;;;;;;20.00;57.10;;;;;;5053706;28;19915;-93
2022/11/23 10:02:42;;;;;;;;;;;19.90;57.40;;;;;;5052811;28;19908;-93
2022/11/23 10:05:12;;;;;;;;;;;19.80;57.70;;;;;;5053965;28;19913;-93
2022/11/23 10:07:56;;;;;;;;;;;19.70;57.90;;;;;;5057740;28;20285;-93
2022/11/23 10:10:37;;;;;;;;;;;19.60;58.20;;;;;;5055057;28;19919;-91
2022/11/23 10:13:03;;;;;;;;;;;19.60;58.50;;;;;;5053239;28;20040;-91
2022/11/23 10:15:47;;;;;;;;;;;19.50;58.70;;;;;;5053373;28;19926;-91
2022/11/23 10:18:19;;;;;;;;;;;19.50;58.90;;;;;;5051371;28;20350;-91
2022/11/23 10:20:52;;;;;;;;;;;19.40;59.10;;;;;;5051892;28;19916;-90
2022/11/23 10:23:33;;;;;;;;;;;19.30;59.40;;;;;;5052088;28;20144;-91
2022/11/23 10:25:59;;;;;;;;;;;19.20;59.60;;;;;;5053416;28;20347;-92
2022/11/23 10:28:28;;;;;;;;;;;19.20;59.80;;;;;;5055070;28;19948;-91
2022/11/23 10:31:24;;;;;;;;;;;19.10;60.00;;;;;;5052230;28;20194;-90
2022/11/23 10:34:09;;;;;;;;;;;19.10;61.00;;;;;;5043968;28;20194;-91
2022/11/23 10:36:35;;;;;;;;;;;19.00;60.60;;;;;;5053553;28;19924;-90
2022/11/23 10:39:01;;;;;;;;;;;19.00;60.90;;;;;;5051447;28;19970;-91
2022/11/23 10:41:28;;;;;;;;;;;19.00;61.80;;;;;;5050468;28;19916;-90
2022/11/23 10:43:54;;;;;;;;;;;18.90;61.40;;;;;;5051588;28;19916;-90
2022/11/23 10:46:23;;;;;;;;;;;18.90;61.60;;;;;;5049823;28;19999;-91
2022/11/23 10:48:50;;;;;;;;;;;18.80;61.90;;;;;;5050613;28;19909;-90
2022/11/23 10:51:18;;;;;;;;;;;18.80;62.10;;;;;;5029003;28;20089;-90
2022/11/23 10:53:49;;;;;;;;;;;18.80;62.30;;;;;;5050234;28;19999;-90
2022/11/23 10:56:15;;;;;;;;;;;18.70;62.30;;;;;;5053033;28;19908;-90
2022/11/23 10:58:43;;;;;;;;;;;18.70;62.40;;;;;;5055151;28;20041;-91
2022/11/23 11:01:14;;;;;;;;;;;18.70;62.50;;;;;;5053253;28;20221;-90
2022/11/23 11:03:39;;;;;;;;;;;18.70;62.60;;;;;;5050479;28;19924;-89
2022/11/23 11:06:05;;;;;;;;;;;18.70;62.60;;;;;;5051286;28;19912;-89
2022/11/23 11:08:32;;;;;;;;;;;18.70;62.60;;;;;;5050463;28;20040;-90
2022/11/23 11:11:00;;;;;;;;;;;18.70;62.70;;;;;;5050820;28;19974;-90
2022/11/23 11:13:29;;;;;;;;;;;18.70;62.60;;;;;;5049390;28;19948;-90
2022/11/23 11:15:56;;;;;;;;;;;18.70;62.80;;;;;;5047092;28;19909;-90
2022/11/23 11:18:24;;;;;;;;;;;18.70;62.70;;;;;;5050198;28;19977;-90
2022/11/23 11:20:55;;;;;;;;;;;18.70;62.70;;;;;;5050407;28;20266;-89
2022/11/23 11:23:21;;;;;;;;;;;18.70;62.70;;;;;;5054412;28;19920;-90
2022/11/23 11:25:47;;;;;;;;;;;18.70;62.70;;;;;;5055431;28;19908;-90
2022/11/23 11:28:22;;;;;;;;;;;18.70;62.80;;;;;;5054543;28;19909;-89
2022/11/23 11:31:11;;;;;;;;;;;18.70;62.80;;;;;;5053538;28;20097;-90
2022/11/23 11:33:43;;;;;;;;;;;18.60;62.90;;;;;;5034712;28;20028;-90
2022/11/23 11:36:12;;;;;;;;;;;18.60;62.90;;;;;;5052147;28;19927;-90
2022/11/23 11:38:39;;;;;;;;;;;18.60;63.00;;;;;;5053770;28;19931;-90
2022/11/23 11:41:07;;;;;;;;;;;18.60;63.30;;;;;;5055378;28;19986;-90
2022/11/23 11:43:39;;;;;;;;;;;18.60;62.90;;;;;;5052634;28;20462;-90
2022/11/23 11:46:11;;;;;;;;;;;18.60;62.90;;;;;;5052068;28;20159;-89
2022/11/23 11:48:38;;;;;;;;;;;18.60;63.00;;;;;;5067823;28;20265;-89
2022/11/23 11:51:06;;;;;;;;;;;18.60;63.10;;;;;;5052116;28;19912;-90
2022/11/23 11:53:38;;;;;;;;;;;18.60;63.30;;;;;;5051093;28;20476;-91
2022/11/23 11:56:04;;;;;;;;;;;18.60;63.50;;;;;;5050963;28;19912;-90
2022/11/23 11:58:33;;;;;;;;;;;18.50;63.70;;;;;;5049431;28;19927;-91
2022/11/23 12:01:11;;;;;;;;;;;18.50;64.00;;;;;;5031969;28;19915;-89
2022/11/23 12:03:40;;;;;;;;;;;18.40;64.10;;;;;;5049724;28;20327;-89
2022/11/23 12:06:26;;;;;;;;;;;18.40;64.50;;;;;;5068988;28;20209;-89
2022/11/23 12:08:58;;;;;;;;;;;18.30;64.70;;;;;;5051907;28;20276;-89
2022/11/23 12:11:24;;;;;;;;;;;18.40;64.90;;;;;;5051364;28;20003;-89
2022/11/23 12:13:52;;;;;;;;;;;18.30;65.00;;;;;;5052238;28;19979;-90
2022/11/23 12:16:23;;;;;;;;;;;18.30;65.00;;;;;;5052188;28;19909;-92
2022/11/23 12:18:49;;;;;;;;;;;18.30;65.20;;;;;;5051292;28;20017;-91
2022/11/23 12:21:21;;;;;;;;;;;18.30;65.20;;;;;;5050515;28;19919;-90
2022/11/23 12:23:52;;;;;;;;;;;18.30;65.40;;;;;;5050580;28;20173;-90
2022/11/23 12:26:18;;;;;;;;;;;18.20;65.70;;;;;;5051270;28;19908;-90
2022/11/23 12:28:55;;;;;;;;;;;18.20;65.90;;;;;;5051893;28;19918;-90
2022/11/23 12:31:20;;;;;;;;;;;18.20;66.10;;;;;;5050962;28;20072;-89
2022/11/23 12:33:54;;;;;;;;;;;18.20;66.20;;;;;;5048865;28;19920;-90
2022/11/23 12:36:38;;;;;;;;;;;18.10;66.20;;;;;;5049184;28;20373;-90
2022/11/23 12:39:06;;;;;;;;;;;18.10;66.40;;;;;;5049652;28;19909;-89
2022/11/23 12:41:40;;;;;;;;;;;18.10;66.60;;;;;;5050116;28;20257;-90
2022/11/23 12:44:08;;;;;;;;;;;18.10;66.90;;;;;;5035218;28;20151;-89
2022/11/23 12:46:40;;;;;;;;;;;18.00;67.00;;;;;;5064099;28;19943;-90
2022/11/23 12:49:06;;;;;;;;;;;18.00;67.20;;;;;;5067910;28;19999;-90
2022/11/23 12:51:31;;;;;;;;;;;17.90;67.50;;;;;;5070489;28;20340;-90
2022/11/23 12:54:10;;;;;;;;;;;17.90;67.60;;;;;;5069797;28;19971;-90
2022/11/23 12:56:35;;;;;;;;;;;17.90;67.80;;;;;;5068252;28;19970;-90
2022/11/23 12:59:02;;;;;;;;;;;17.80;68.00;;;;;;5067936;28;19921;-90
2022/11/23 13:01:34;;;;;;;;;;;17.80;68.20;;;;;;5069057;28;19995;-90
2022/11/23 13:04:07;;;;;;;;;;;17.80;68.10;;;;;;5068620;28;19918;-90
2022/11/23 13:06:42;;;;;;;;;;;17.80;68.70;;;;;;5069286;28;19995;-89
2022/11/23 13:09:10;;;;;;;;;;;17.70;68.80;;;;;;5067090;28;20015;-89
2022/11/23 13:11:36;;;;;;;;;;;17.60;69.10;;;;;;5067577;28;19909;-89
2022/11/23 13:14:15;;;;;;;;;;;17.60;69.50;;;;;;5066673;28;20071;-90
2022/11/23 13:17:03;;;;;;;;;;;17.50;69.80;;;;;;5065372;28;19919;-91
2022/11/23 13:19:42;;;;;;;;;;;17.50;70.00;;;;;;5068330;28;19908;-90
2022/11/23 13:22:13;;;;;;;;;;;17.40;70.10;;;;;;5069098;28;19908;-90
2022/11/23 13:24:56;;;;;;;;;;;17.40;70.70;;;;;;5034091;28;20249;-91
2022/11/23 13:27:25;;;;;;;;;;;17.40;70.70;;;;;;5032154;28;19908;-90
2022/11/23 13:29:51;;;;;;;;;;;17.30;70.40;;;;;;5048970;28;19909;-91
2022/11/23 13:32:35;;;;;;;;;;;17.30;70.90;;;;;;5031127;28;19932;-90
2022/11/23 13:35:00;;;;;;;;;;;17.20;71.00;;;;;;5028495;28;20290;-90
2022/11/23 13:37:26;;;;;;;;;;;17.20;71.70;;;;;;5031400;28;19975;-90
2022/11/23 13:39:59;;;;;;;;;;;17.10;71.50;;;;;;5033104;28;19919;-89
2022/11/23 13:42:25;;;;;;;;;;;17.10;71.20;;;;;;5031099;28;20270;-90
2022/11/23 13:45:09;;;;;;;;;;;17.10;72.10;;;;;;5047070;28;19912;-90
2022/11/23 13:47:36;;;;;;;;;;;17.10;72.00;;;;;;5048671;28;19908;-90
2022/11/23 13:50:18;;;;;;;;;;;17.10;71.90;;;;;;5032148;28;19908;-90
2022/11/23 13:52:48;;;;;;;;;;;17.10;71.80;;;;;;5031104;28;20174;-92
2022/11/23 13:55:13;;;;;;;;;;;17.10;71.40;;;;;;5027978;28;20174;-90
2022/11/23 13:57:40;;;;;;;;;;;17.10;71.40;;;;;;5030804;28;19909;-89
2022/11/23 14:00:24;;;;;;;;;;;17.10;71.40;;;;;;5032352;28;19909;-90
2022/11/23 14:02:50;;;;;;;;;;;17.10;71.20;;;;;;5029766;28;20134;-90
2022/11/23 14:05:29;;;;;;;;;;;17.10;71.30;;;;;;5031012;28;20066;-89
2022/11/23 14:07:55;;;;;;;;;;;17.00;71.00;;;;;;5030043;28;20174;-89
2022/11/23 14:10:22;;;;;;;;;;;17.00;71.70;;;;;;5030853;28;20258;-90
2022/11/23 14:13:04;;;;;;;;;;;16.90;72.00;;;;;;5031470;28;19909;-89
2022/11/23 14:15:32;;;;;;;;;;;16.90;72.10;;;;;;5031619;28;19908;-90
2022/11/23 14:18:16;;;;;;;;;;;16.80;72.30;;;;;;5030258;28;20281;-90
2022/11/23 14:20:42;;;;;;;;;;;16.80;73.00;;;;;;5030018;28;19939;-90
2022/11/23 14:23:26;;;;;;;;;;;16.70;73.20;;;;;;5029772;28;20224;-89
2022/11/23 14:25:55;;;;;;;;;;;16.70;73.50;;;;;;5028753;28;19973;-90
2022/11/23 14:28:35;;;;;;;;;;;16.60;73.70;;;;;;5028651;28;19909;-89